Time;durP1;ratioP1;P1;durP2;ratioP2;P2;SDS_P1;SDS_P2;PMS_P1;PMS_P2;Temp;Humidity;BMP_temperature;BMP_pressure;BME280_temperature;BME280_humidity;BME280_pressure;Samples;Min_cycle;Max_cycle;Signal;HPM_P1;HPM_P2
2020/12/05 13:12:41;;;;;;;14.73;9.93;;;5.40;99.90;;;;;;5147759;27;20303;-76
2020/12/05 13:15:07;;;;;;;15.45;10.13;;;;;;;;;;5128813;27;20459;-75
2020/12/05 13:17:33;;;;;;;12.35;8.85;;;;;;;;;;5147907;27;20080;-78
2020/12/05 13:20:00;;;;;;;14.15;9.15;;;;;;;;;;5149638;27;20429;-76
2020/12/05 13:22:26;;;;;;;12.80;9.18;;;;;;;;;;5150064;27;20117;-77
2020/12/05 13:24:52;;;;;;;13.70;8.80;;;;;;;;;;5149432;27;20654;-76
2020/12/05 13:27:18;;;;;;;14.43;9.32;;;;;;;;;;5147317;27;20038;-76
2020/12/05 13:29:44;;;;;;;20.65;8.95;;;;;;;;;;5148872;27;20057;-78
2020/12/05 13:32:10;;;;;;;16.48;9.00;;;;;;;;;;5149792;27;20144;-78
2020/12/05 13:34:37;;;;;;;11.35;8.27;;;;;;;;;;5149115;27;20487;-78
2020/12/05 13:37:03;;;;;;;11.80;8.05;;;;;;;;;;5147869;27;20132;-78
2020/12/05 13:39:29;;;;;;;11.50;7.90;;;;;;;;;;5152192;27;20023;-79
2020/12/05 13:41:55;;;;;;;11.30;8.60;;;;;;;;;;5154714;27;20019;-79
2020/12/05 13:44:21;;;;;;;18.98;8.15;;;;;;;;;;5158688;27;20045;-79
2020/12/05 13:46:51;;;;;;;13.43;8.80;;;;;;;;;;5154264;27;20035;-79
2020/12/05 13:49:17;;;;;;;14.15;9.43;;;;;;;;;;5152389;27;20050;-78
2020/12/05 13:51:43;;;;;;;15.05;8.68;;;;;;;;;;5152544;27;20034;-76
2020/12/05 13:54:09;;;;;;;14.80;9.30;;;;;;;;;;5151313;27;20023;-77
2020/12/05 13:56:35;;;;;;;13.73;9.23;;;;;;;;;;5148866;27;20106;-77
2020/12/05 13:59:01;;;;;;;11.82;8.48;;;;;;;;;;5149388;27;20058;-77
2020/12/05 14:01:27;;;;;;;12.48;7.57;;;5.50;99.90;;;;;;5148315;27;20055;-78
2020/12/05 14:03:53;;;;;;;14.20;9.50;;;;;;;;;;5151487;27;20027;-75
2020/12/05 14:06:19;;;;;;;14.02;9.63;;;;;;;;;;5147102;27;20031;-75
2020/12/05 14:08:45;;;;;;;12.25;9.30;;;;;;;;;;5138811;27;20506;-78
2020/12/05 14:11:11;;;;;;;13.65;9.80;;;;;;;;;;5140237;27;20055;-76
2020/12/05 14:13:37;;;;;;;12.48;9.35;;;;;;;;;;5141139;27;20397;-79
2020/12/05 14:16:03;;;;;;;15.05;10.32;;;;;;;;;;5138186;27;20031;-76
2020/12/05 14:18:30;;;;;;;17.05;10.60;;;;;;;;;;5139661;27;20042;-77
2020/12/05 14:20:56;;;;;;;14.15;9.68;;;;;;;;;;5138827;27;20053;-78
2020/12/05 14:23:22;;;;;;;12.20;9.10;;;;;;;;;;5128494;27;20503;-79
2020/12/05 14:25:48;;;;;;;13.70;10.25;;;;;;;;;;5127703;27;20106;-76
2020/12/05 14:28:15;;;;;;;16.35;9.95;;;;;;;;;;5124918;27;20120;-79
2020/12/05 14:30:41;;;;;;;16.00;12.25;;;;;;;;;;5118913;27;20612;-78
2020/12/05 14:33:07;;;;;;;15.10;10.68;;;;;;;;;;5100951;27;20024;-76
2020/12/05 14:35:33;;;;;;;20.02;12.10;;;;;;;;;;5121250;27;20077;-76
2020/12/05 14:37:59;;;;;;;28.65;17.38;;;;;;;;;;5123589;27;20015;-78
2020/12/05 14:40:25;;;;;;;20.67;14.30;;;;;;;;;;5122768;27;20022;-77
2020/12/05 14:42:51;;;;;;;16.08;12.02;;;;;;;;;;5124911;27;20023;-77
2020/12/05 14:45:17;;;;;;;16.38;11.57;;;;;;;;;;5123691;27;20057;-78
2020/12/05 14:47:43;;;;;;;22.98;15.55;;;;;;;;;;5121085;27;20039;-76
2020/12/05 14:50:09;;;;;;;21.45;14.05;;;;;;;;;;5125177;27;20019;-78
2020/12/05 14:52:35;;;;;;;19.92;13.27;;;;;;;;;;5117492;27;20072;-74
2020/12/05 14:55:01;;;;;;;18.02;13.15;;;;;;;;;;5121428;27;20019;-78
2020/12/05 14:57:27;;;;;;;25.60;13.95;;;5.50;99.90;;;;;;5119852;27;20042;-75
2020/12/05 14:59:53;;;;;;;20.60;13.63;;;4.50;99.90;;;;;;5119976;27;20056;-77
2020/12/05 15:02:18;;;;;;;16.77;12.52;;;4.50;99.90;;;;;;5119334;27;20031;-78
2020/12/05 15:04:44;;;;;;;15.70;11.73;;;4.30;99.90;;;;;;5118348;27;20027;-78
2020/12/05 15:07:10;;;;;;;18.92;12.90;;;5.30;99.90;;;;;;5120485;27;20031;-76
2020/12/05 15:09:35;;;;;;;18.15;11.65;;;4.40;99.90;;;;;;5117852;27;20023;-76
2020/12/05 15:12:01;;;;;;;16.77;11.20;;;5.00;99.90;;;;;;5115402;27;20045;-76
2020/12/05 15:14:26;;;;;;;14.80;10.23;;;5.40;99.90;;;;;;5118041;27;20075;-78
2020/12/05 15:16:52;;;;;;;15.18;10.18;;;4.30;99.90;;;;;;5123541;27;20042;-77
2020/12/05 15:19:18;;;;;;;15.65;10.98;;;4.40;99.90;;;;;;5117718;27;20106;-81
2020/12/05 15:21:44;;;;;;;14.40;10.85;;;4.20;99.90;;;;;;5119508;27;20158;-77
2020/12/05 15:24:10;;;;;;;16.63;11.90;;;4.80;99.90;;;;;;5120000;27;20103;-75
2020/12/05 15:26:35;;;;;;;16.58;12.23;;;5.10;99.90;;;;;;5111378;27;20038;-79
2020/12/05 15:29:01;;;;;;;18.48;13.50;;;4.20;99.90;;;;;;5116685;27;20027;-75
2020/12/05 15:31:27;;;;;;;17.05;12.57;;;4.20;99.90;;;;;;5119998;27;20483;-75
2020/12/05 15:33:52;;;;;;;16.67;11.77;;;4.10;99.90;;;;;;5113236;27;20164;-77
2020/12/05 15:36:18;;;;;;;16.33;12.15;;;5.60;99.90;;;;;;5121358;27;20027;-75
2020/12/05 15:38:44;;;;;;;17.33;12.32;;;4.00;99.90;;;;;;5117499;27;20011;-75
2020/12/05 15:41:12;;;;;;;18.67;13.30;;;4.10;99.90;;;;;;5128716;27;20119;-75
2020/12/05 15:43:38;;;;;;;20.05;12.73;;;5.80;99.90;;;;;;5129655;27;20031;-76
2020/12/05 15:46:06;;;;;;;17.25;11.77;;;6.60;99.90;;;;;;5129046;27;20514;-78
2020/12/05 15:48:32;;;;;;;18.15;12.55;;;4.00;99.90;;;;;;5130043;27;20031;-79
2020/12/05 15:50:57;;;;;;;18.55;12.90;;;4.00;99.90;;;;;;5129211;27;20058;-77
2020/12/05 15:53:24;;;;;;;17.80;12.25;;;3.90;99.90;;;;;;5129595;27;20027;-77
2020/12/05 15:55:49;;;;;;;20.02;13.60;;;2.30;99.90;;;;;;5129259;27;20031;-75
2020/12/05 15:58:15;;;;;;;17.75;12.32;;;4.00;99.90;;;;;;5125487;27;20034;-75
2020/12/05 16:00:40;;;;;;;20.15;12.88;;;3.90;99.90;;;;;;5120438;27;20092;-75
2020/12/05 16:03:06;;;;;;;15.95;12.00;;;4.10;99.90;;;;;;5121696;27;20036;-75
2020/12/05 16:05:32;;;;;;;16.77;12.32;;;3.90;99.90;;;;;;5117312;27;20028;-80
2020/12/05 16:07:57;;;;;;;17.10;12.48;;;3.70;99.90;;;;;;5119914;27;20031;-74
2020/12/05 16:10:23;;;;;;;18.90;12.10;;;3.80;99.90;;;;;;5120801;27;20023;-75
2020/12/05 16:12:49;;;;;;;13.45;10.77;;;5.50;99.90;;;;;;5117598;27;20049;-76
2020/12/05 16:15:15;;;;;;;16.88;11.55;;;3.60;99.90;;;;;;5119795;27;20027;-75
2020/12/05 16:17:41;;;;;;;16.70;12.07;;;4.70;99.90;;;;;;5117880;27;20069;-76
2020/12/05 16:20:08;;;;;;;16.73;11.18;;;3.80;99.90;;;;;;5113001;27;20613;-76
2020/12/05 16:22:35;;;;;;;16.55;12.10;;;3.70;99.90;;;;;;5106944;28;20489;-75
2020/12/05 16:25:02;;;;;;;17.63;12.80;;;3.80;99.90;;;;;;5107097;28;20020;-79
2020/12/05 16:27:28;;;;;;;20.88;13.63;;;3.70;99.90;;;;;;5108269;28;20027;-75
2020/12/05 16:29:54;;;;;;;20.30;14.82;;;3.80;99.90;;;;;;5108455;28;20023;-76
2020/12/05 16:32:19;;;;;;;20.75;14.23;;;3.80;99.90;;;;;;5108905;28;20055;-75
2020/12/05 16:34:45;;;;;;;22.23;14.57;;;3.70;99.90;;;;;;5108467;28;20035;-75
2020/12/05 16:37:10;;;;;;;21.85;15.85;;;3.70;99.90;;;;;;5108827;28;20047;-77
2020/12/05 16:39:36;;;;;;;22.67;15.90;;;3.80;99.90;;;;;;5110708;28;20027;-75
2020/12/05 16:42:02;;;;;;;22.50;15.20;;;3.80;99.90;;;;;;5109977;28;20024;-76
2020/12/05 16:44:27;;;;;;;25.42;15.95;;;4.40;99.90;;;;;;5109995;28;20027;-76
2020/12/05 16:46:53;;;;;;;19.30;13.77;;;4.50;99.90;;;;;;5108031;28;20031;-77
2020/12/05 16:49:19;;;;;;;18.02;13.20;;;3.70;99.90;;;;;;5108629;28;20055;-77
2020/12/05 16:51:51;;;;;;;19.35;13.02;;;4.80;99.90;;;;;;5109259;28;20108;-76
2020/12/05 16:54:18;;;;;;;16.98;13.27;;;3.70;99.90;;;;;;5107232;28;20041;-75
2020/12/05 16:56:44;;;;;;;20.80;14.25;;;4.60;99.90;;;;;;5107789;28;20019;-77
2020/12/05 16:59:10;;;;;;;23.05;14.38;;;3.80;99.90;;;;;;5108629;28;20020;-78
2020/12/05 17:01:35;;;;;;;20.75;13.35;;;3.70;99.90;;;;;;5107688;28;20050;-76
2020/12/05 17:04:01;;;;;;;20.55;14.18;;;3.70;99.90;;;;;;5108015;28;20488;-80
2020/12/05 17:06:29;;;;;;;19.30;12.23;;;4.50;99.90;;;;;;5126952;27;20035;-75
2020/12/05 17:08:55;;;;;;;17.48;12.23;;;5.00;99.90;;;;;;5128217;27;20046;-77
2020/12/05 17:11:21;;;;;;;23.40;12.98;;;;;;;;;;5121891;28;20503;-77
2020/12/05 17:13:47;;;;;;;21.70;13.40;;;;;;;;;;5121862;28;20019;-77
2020/12/05 17:16:13;;;;;;;21.90;14.25;;;;;;;;;;5114903;27;20483;-75
2020/12/05 17:18:39;;;;;;;21.08;14.85;;;;;;;;;;5118056;27;20463;-75
2020/12/05 17:21:05;;;;;;;21.52;13.20;;;;;;;;;;5113322;27;20024;-77
2020/12/05 17:23:31;;;;;;;19.63;13.00;;;;;;;;;;5116191;27;20398;-78
2020/12/05 17:25:57;;;;;;;19.60;12.85;;;;;;;;;;5118088;27;20034;-75
2020/12/05 17:28:23;;;;;;;20.98;12.93;;;;;;;;;;5112650;28;20059;-75
2020/12/05 17:30:49;;;;;;;17.63;12.57;;;;;;;;;;5107754;27;20063;-83
2020/12/05 17:33:15;;;;;;;18.58;12.38;;;;;;;;;;5149074;27;20042;-76
2020/12/05 17:35:41;;;;;;;20.58;15.48;;;;;;;;;;5135321;27;20142;-75
2020/12/05 17:38:08;;;;;;;33.83;22.50;;;;;;;;;;5128245;27;20105;-77
2020/12/05 17:40:34;;;;;;;26.83;18.52;;;;;;;;;;5126892;28;20023;-75
2020/12/05 17:43:00;;;;;;;27.08;18.85;;;;;;;;;;5128453;27;20365;-78
2020/12/05 17:45:26;;;;;;;27.90;17.38;;;;;;;;;;5128837;27;20027;-75
2020/12/05 17:47:52;;;;;;;26.13;17.58;;;;;;;;;;5125802;27;20031;-77
2020/12/05 17:50:17;;;;;;;23.33;16.08;;;;;;;;;;5128839;27;20077;-78
2020/12/05 17:52:46;;;;;;;20.45;13.20;;;;;;;;;;5127961;27;20755;-75
2020/12/05 17:55:12;;;;;;;18.95;13.20;;;;;;;;;;5127706;27;20023;-75
2020/12/05 17:57:38;;;;;;;19.00;13.13;;;;;;;;;;5128331;27;20020;-74
2020/12/05 18:00:04;;;;;;;20.92;13.95;;;;;;;;;;5131854;27;20035;-75
2020/12/05 18:02:30;;;;;;;20.23;13.70;;;;;;;;;;5130797;27;20035;-79
2020/12/05 18:04:56;;;;;;;22.60;15.18;;;;;;;;;;5125171;27;20506;-75
2020/12/05 18:07:22;;;;;;;23.08;15.90;;;;;;;;;;5123706;27;20023;-75
2020/12/05 18:09:51;;;;;;;21.23;14.00;;;;;;;;;;5125073;27;20027;-81
2020/12/05 18:12:17;;;;;;;22.33;13.88;;;;;;;;;;5122233;27;20027;-75
2020/12/05 18:14:44;;;;;;;26.17;17.30;;;;;;;;;;5119005;27;20031;-75
2020/12/05 18:17:10;;;;;;;25.80;16.10;;;;;;;;;;5120274;27;20084;-75
2020/12/05 18:19:36;;;;;;;23.33;15.35;;;;;;;;;;5126597;27;20019;-75
2020/12/05 18:22:03;;;;;;;19.58;13.57;;;;;;;;;;5120659;27;20106;-75
2020/12/05 18:24:29;;;;;;;19.08;14.07;;;;;;;;;;5113411;27;20028;-75
2020/12/05 18:26:55;;;;;;;21.35;14.02;;;;;;;;;;5110245;27;20496;-75
2020/12/05 18:29:21;;;;;;;20.02;13.63;;;;;;;;;;5122232;27;20030;-77
2020/12/05 18:31:47;;;;;;;18.65;13.43;;;;;;;;;;5115635;27;20032;-75
2020/12/05 18:34:13;;;;;;;19.88;13.43;;;;;;;;;;5115148;27;20200;-77
2020/12/05 18:36:40;;;;;;;18.45;13.27;;;;;;;;;;5117760;27;20212;-76
2020/12/05 18:39:07;;;;;;;23.67;14.65;;;;;;;;;;5110370;28;20012;-78
2020/12/05 18:41:33;;;;;;;26.10;16.95;;;;;;;;;;5110199;28;20196;-75
2020/12/05 18:44:00;;;;;;;23.05;15.85;;;;;;;;;;5109855;28;20027;-76
2020/12/05 18:46:26;;;;;;;19.33;14.20;;;;;;;;;;5109574;28;20030;-74
2020/12/05 18:48:53;;;;;;;21.75;14.65;;;;;;;;;;5110188;28;20023;-78
2020/12/05 18:51:21;;;;;;;20.48;12.98;;;;;;;;;;5109127;28;20042;-75
2020/12/05 18:53:47;;;;;;;20.23;13.15;;;;;;;;;;5109883;28;20031;-75
2020/12/05 18:56:13;;;;;;;23.55;13.55;;;;;;;;;;5108056;28;20028;-78
2020/12/05 18:58:40;;;;;;;19.00;13.77;;;;;;;;;;5109370;28;20024;-76
2020/12/05 19:01:12;;;;;;;19.92;14.02;;;;;;;;;;5110073;28;20439;-75
2020/12/05 19:03:39;;;;;;;19.70;13.32;;;;;;;;;;5110003;28;20557;-76
2020/12/05 19:06:05;;;;;;;21.30;13.95;;;;;;;;;;5141764;27;20031;-75
2020/12/05 19:08:31;;;;;;;22.00;14.88;;;;;;;;;;5150967;27;20075;-76
